createdAt,value
2023-03-30T00:01:55.754Z,5.65
2023-03-30T00:04:43.945Z,6.00
2023-03-30T00:07:32.101Z,8.23
2023-03-30T00:10:20.432Z,8.40
2023-03-30T00:13:08.506Z,5.60
2023-03-30T00:15:58.012Z,7.43
2023-03-30T00:18:46.025Z,7.18
2023-03-30T00:21:35.096Z,7.22
2023-03-30T00:24:23.532Z,8.63
2023-03-30T00:27:11.590Z,6.43
2023-03-30T00:29:59.725Z,7.10
2023-03-30T00:32:49.231Z,8.43
2023-03-30T00:35:37.541Z,6.20
2023-03-30T00:38:27.113Z,7.70
2023-03-30T00:41:16.012Z,6.07
2023-03-30T00:44:06.517Z,7.40
2023-03-30T00:47:03.654Z,7.30
2023-03-30T00:49:53.258Z,5.22
2023-03-30T00:52:43.286Z,9.20
2023-03-30T00:55:33.717Z,7.03
2023-03-30T00:58:23.671Z,5.97
2023-03-30T01:01:16.058Z,7.70
2023-03-30T01:04:05.871Z,6.50
2023-03-30T01:06:58.005Z,6.33
2023-03-30T01:09:48.084Z,7.15
2023-03-30T01:12:36.627Z,5.50
2023-03-30T01:15:25.362Z,5.18
2023-03-30T01:18:25.822Z,4.32
2023-03-30T01:21:45.736Z,6.00
2023-03-30T01:25:10.299Z,5.95
2023-03-30T01:28:35.758Z,5.55
2023-03-30T01:31:38.038Z,8.57
2023-03-30T01:34:51.728Z,4.85
2023-03-30T01:38:03.267Z,7.73
2023-03-30T01:40:58.160Z,9.63
2023-03-30T01:43:52.625Z,6.75
2023-03-30T01:46:49.062Z,7.95
2023-03-30T01:49:42.906Z,6.53
2023-03-30T01:52:38.537Z,6.23
2023-03-30T01:55:33.365Z,5.30
2023-03-30T01:58:28.145Z,7.32
2023-03-30T02:01:20.724Z,8.30
2023-03-30T02:04:12.738Z,7.97
2023-03-30T02:07:05.243Z,6.33
2023-03-30T02:09:56.898Z,4.72
2023-03-30T02:12:46.566Z,5.82
2023-03-30T02:15:40.870Z,6.95
2023-03-30T02:18:28.962Z,6.18
2023-03-30T02:21:17.599Z,6.37
2023-03-30T02:24:17.684Z,6.57
2023-03-30T02:27:06.678Z,5.75
2023-03-30T02:29:56.378Z,6.55
2023-03-30T02:32:50.869Z,5.70
2023-03-30T02:35:55.447Z,7.63
2023-03-30T02:38:57.511Z,7.28
2023-03-30T02:42:16.692Z,6.00
2023-03-30T02:45:19.086Z,6.43
2023-03-30T02:48:20.537Z,4.43
2023-03-30T02:51:33.018Z,5.00
2023-03-30T02:54:31.328Z,9.50
2023-03-30T02:57:29.932Z,4.72
2023-03-30T03:00:24.452Z,5.18
2023-03-30T03:03:18.410Z,4.88
2023-03-30T03:06:09.431Z,10.77
2023-03-30T03:08:57.915Z,4.88
2023-03-30T03:11:45.967Z,5.78
2023-03-30T03:14:34.022Z,6.05
2023-03-30T03:17:22.877Z,6.03
2023-03-30T03:20:13.771Z,7.63
2023-03-30T03:23:01.879Z,4.85
2023-03-30T03:25:50.031Z,6.18
2023-03-30T03:28:38.306Z,5.97
2023-03-30T03:31:31.040Z,3.97
2023-03-30T03:34:20.208Z,5.80
2023-03-30T03:37:09.633Z,5.78
2023-03-30T03:39:58.676Z,8.85
2023-03-30T03:42:47.203Z,7.05
2023-03-30T03:45:35.275Z,7.63
2023-03-30T03:48:25.280Z,6.30
2023-03-30T03:51:13.356Z,7.78
2023-03-30T03:54:03.049Z,6.07
2023-03-30T03:56:51.936Z,7.40
2023-03-30T03:59:40.957Z,9.90
2023-03-30T04:02:29.275Z,10.47
2023-03-30T04:05:17.600Z,6.47
2023-03-30T04:08:11.392Z,6.63
2023-03-30T04:11:07.921Z,8.02
2023-03-30T04:13:56.036Z,9.43
2023-03-30T04:16:46.713Z,7.33
2023-03-30T04:19:36.138Z,7.18
2023-03-30T04:22:25.535Z,8.13
2023-03-30T04:25:15.755Z,8.30
2023-03-30T04:28:05.358Z,10.57
2023-03-30T04:30:58.944Z,9.27
2023-03-30T04:33:52.126Z,11.30
2023-03-30T04:36:48.623Z,11.45
2023-03-30T04:39:36.766Z,7.55
2023-03-30T04:42:30.433Z,8.63
2023-03-30T04:45:20.663Z,11.03
2023-03-30T04:48:08.925Z,16.65
2023-03-30T04:50:56.941Z,14.55
2023-03-30T04:53:44.919Z,10.73
2023-03-30T04:56:32.942Z,13.30
2023-03-30T04:59:48.814Z,11.40
2023-03-30T05:03:06.722Z,13.02
2023-03-30T05:05:55.065Z,12.32
2023-03-30T05:08:43.112Z,11.80
2023-03-30T05:11:31.142Z,10.65
2023-03-30T05:14:19.425Z,13.33
2023-03-30T05:17:07.480Z,11.82
2023-03-30T05:19:56.951Z,7.07
2023-03-30T05:22:46.945Z,16.10
2023-03-30T05:25:34.977Z,12.52
2023-03-30T05:28:23.683Z,16.00
2023-03-30T05:31:11.819Z,13.77
2023-03-30T05:33:59.889Z,14.13
2023-03-30T05:36:50.060Z,18.20
2023-03-30T05:39:38.088Z,14.00
2023-03-30T05:42:26.443Z,12.33
2023-03-30T05:45:14.761Z,9.57
2023-03-30T05:48:03.087Z,16.60
2023-03-30T05:50:51.250Z,15.70
2023-03-30T05:53:40.707Z,11.93
2023-03-30T05:56:28.843Z,12.43
2023-03-30T05:59:16.973Z,12.32
2023-03-30T06:02:07.781Z,12.40
2023-03-30T06:04:57.280Z,13.82
2023-03-30T06:07:45.948Z,16.50
2023-03-30T06:10:35.771Z,14.57
2023-03-30T06:13:25.248Z,10.80
2023-03-30T06:16:13.687Z,15.27
2023-03-30T06:19:01.846Z,12.77
2023-03-30T06:21:50.253Z,14.23
2023-03-30T06:24:38.406Z,12.03
2023-03-30T06:27:33.155Z,11.25
2023-03-30T06:30:21.515Z,16.77
2023-03-30T06:33:09.785Z,14.98
2023-03-30T06:35:58.304Z,12.77
2023-03-30T06:38:46.542Z,14.23
2023-03-30T06:41:34.681Z,13.98
2023-03-30T06:44:24.309Z,10.35
2023-03-30T06:47:12.476Z,11.52
2023-03-30T06:50:00.674Z,10.48
2023-03-30T06:52:49.055Z,15.77
2023-03-30T06:55:37.330Z,11.68
2023-03-30T06:58:27.563Z,10.20
2023-03-30T07:01:16.995Z,15.13
2023-03-30T07:04:05.578Z,16.52
2023-03-30T07:06:57.490Z,12.53
2023-03-30T07:09:45.711Z,13.68
2023-03-30T07:12:33.775Z,11.80
2023-03-30T07:15:21.869Z,11.95
2023-03-30T07:18:11.925Z,14.68
2023-03-30T07:21:00.656Z,13.87
2023-03-30T07:23:48.753Z,14.10
2023-03-30T07:26:37.074Z,19.48
2023-03-30T07:29:27.120Z,13.63
2023-03-30T07:32:15.181Z,21.10
2023-03-30T07:35:04.770Z,18.07
2023-03-30T07:38:00.441Z,18.70
2023-03-30T07:40:53.531Z,17.83
2023-03-30T07:43:42.313Z,17.80
2023-03-30T07:46:30.486Z,17.20
2023-03-30T07:49:18.560Z,23.10
2023-03-30T07:52:08.230Z,12.98
2023-03-30T07:54:56.780Z,16.27
2023-03-30T07:57:44.792Z,11.95
2023-03-30T08:00:32.841Z,14.65
2023-03-30T08:03:22.136Z,11.87
2023-03-30T08:06:12.376Z,19.38
2023-03-30T08:09:02.647Z,17.95
2023-03-30T08:11:51.404Z,17.33
2023-03-30T08:14:39.475Z,18.23
2023-03-30T08:17:27.983Z,18.27
2023-03-30T08:20:16.228Z,15.55
2023-03-30T08:23:04.241Z,20.15
2023-03-30T08:25:57.640Z,16.73
2023-03-30T08:28:45.705Z,16.90
2023-03-30T08:31:34.273Z,16.50
2023-03-30T08:34:22.410Z,20.80
2023-03-30T08:37:11.111Z,21.05
2023-03-30T08:39:59.174Z,14.70
2023-03-30T08:43:18.746Z,15.20
2023-03-30T08:46:11.603Z,16.93
2023-03-30T08:49:02.594Z,14.13
2023-03-30T08:51:53.086Z,15.95
2023-03-30T08:54:41.252Z,16.77
2023-03-30T08:57:40.876Z,22.23
2023-03-30T09:00:41.087Z,16.07
2023-03-30T09:03:33.141Z,15.65
2023-03-30T09:06:28.311Z,19.60
2023-03-30T09:09:19.095Z,18.50
2023-03-30T09:12:13.148Z,20.23
2023-03-30T09:15:06.446Z,18.77
2023-03-30T09:18:01.773Z,19.83
2023-03-30T09:20:57.065Z,15.63
2023-03-30T09:23:47.122Z,17.23
2023-03-30T09:26:45.229Z,24.33
2023-03-30T09:29:39.098Z,15.90
2023-03-30T09:32:33.592Z,17.80
2023-03-30T09:35:26.689Z,15.02
2023-03-30T09:38:14.981Z,18.95
2023-03-30T09:41:17.843Z,19.25
2023-03-30T09:44:11.539Z,13.97
2023-03-30T09:47:01.880Z,19.58
2023-03-30T09:49:55.716Z,13.70
2023-03-30T09:52:58.174Z,15.07
2023-03-30T09:55:58.431Z,15.90
2023-03-30T09:58:46.611Z,19.70
2023-03-30T10:01:38.988Z,25.20
2023-03-30T10:04:27.167Z,17.42
2023-03-30T10:07:23.046Z,18.45
2023-03-30T10:10:18.532Z,14.98
2023-03-30T10:13:09.295Z,19.47
2023-03-30T10:16:00.338Z,17.23
2023-03-30T10:18:48.646Z,15.85
2023-03-30T10:21:40.000Z,21.45
2023-03-30T10:24:33.553Z,20.15
2023-03-30T10:27:34.742Z,15.10
2023-03-30T10:30:27.520Z,15.40
2023-03-30T10:33:15.902Z,17.13
2023-03-30T10:36:04.154Z,18.67
2023-03-30T10:38:54.018Z,15.07
2023-03-30T10:41:43.742Z,16.97
2023-03-30T10:44:35.816Z,15.73
2023-03-30T10:47:49.561Z,15.52
2023-03-30T10:50:50.628Z,16.23
2023-03-30T10:53:49.826Z,19.25
2023-03-30T10:56:42.488Z,13.97
2023-03-30T10:59:45.759Z,14.77
2023-03-30T11:02:46.166Z,15.80
2023-03-30T11:05:37.253Z,12.82
2023-03-30T11:08:30.189Z,15.50
2023-03-30T11:11:22.415Z,14.67
2023-03-30T11:14:17.077Z,15.65
2023-03-30T11:17:12.238Z,16.23
2023-03-30T11:20:06.481Z,12.88
2023-03-30T11:23:02.627Z,18.48
2023-03-30T11:26:01.155Z,19.03
2023-03-30T11:29:03.923Z,15.98
2023-03-30T11:32:00.079Z,17.30
2023-03-30T11:35:00.036Z,18.85
2023-03-30T11:37:55.746Z,20.95
2023-03-30T11:40:46.251Z,22.40
2023-03-30T11:43:34.578Z,24.10
2023-03-30T11:46:28.363Z,18.60
2023-03-30T11:49:39.307Z,16.42
2023-03-30T11:52:36.647Z,19.73
2023-03-30T11:55:36.046Z,17.90
2023-03-30T11:58:33.394Z,15.32
2023-03-30T12:01:35.351Z,20.83
2023-03-30T12:04:29.484Z,21.08
2023-03-30T12:07:27.982Z,18.67
2023-03-30T12:10:25.330Z,23.47
2023-03-30T12:13:15.928Z,18.17
2023-03-30T12:16:09.567Z,19.65
2023-03-30T12:19:10.704Z,20.08
2023-03-30T12:22:06.963Z,20.38
2023-03-30T12:25:03.462Z,24.83
2023-03-30T12:28:03.464Z,23.45
2023-03-30T12:30:56.305Z,23.15
2023-03-30T12:33:50.041Z,19.20
2023-03-30T12:36:43.025Z,20.17
2023-03-30T12:39:33.294Z,19.27
2023-03-30T12:42:27.672Z,19.33
2023-03-30T12:45:38.268Z,21.25
2023-03-30T12:48:38.477Z,20.27
2023-03-30T12:51:46.621Z,25.65
2023-03-30T12:54:49.705Z,22.20
2023-03-30T12:57:50.642Z,19.77
2023-03-30T13:01:04.577Z,24.67
2023-03-30T13:03:55.094Z,17.63
2023-03-30T13:06:51.909Z,21.13
2023-03-30T13:09:55.719Z,21.93
2023-03-30T13:12:43.907Z,18.55
2023-03-30T13:15:41.365Z,19.70
2023-03-30T13:18:53.832Z,15.20
2023-03-30T13:21:49.008Z,14.20
2023-03-30T13:24:41.351Z,14.00
2023-03-30T13:27:34.889Z,17.70
2023-03-30T13:30:28.827Z,16.83
2023-03-30T13:33:20.050Z,13.57
2023-03-30T13:36:16.134Z,18.75
2023-03-30T13:39:13.619Z,16.10
2023-03-30T13:42:16.382Z,16.50
2023-03-30T13:45:17.048Z,19.20
2023-03-30T13:48:22.209Z,17.30
2023-03-30T13:51:16.205Z,21.02
2023-03-30T13:54:07.534Z,14.73
2023-03-30T13:57:00.674Z,14.10
2023-03-30T13:59:52.809Z,17.98
2023-03-30T14:02:41.723Z,21.38
2023-03-30T14:05:34.685Z,14.35
2023-03-30T14:08:24.588Z,17.07
2023-03-30T14:11:17.409Z,17.70
2023-03-30T14:14:06.660Z,19.05
2023-03-30T14:16:54.973Z,9.98
2023-03-30T14:19:56.550Z,13.32
2023-03-30T14:22:46.927Z,14.73
2023-03-30T14:25:48.098Z,17.95
2023-03-30T14:28:37.924Z,21.75
2023-03-30T14:31:28.616Z,12.18
2023-03-30T14:34:28.094Z,14.50
2023-03-30T14:37:17.702Z,14.50
2023-03-30T14:40:16.724Z,15.10
2023-03-30T14:43:08.139Z,16.27
2023-03-30T14:45:59.535Z,14.80
2023-03-30T14:48:50.895Z,14.43
2023-03-30T14:51:43.478Z,11.57
2023-03-30T14:54:32.209Z,17.13
2023-03-30T14:57:22.045Z,13.85
2023-03-30T15:00:18.211Z,16.83
2023-03-30T15:03:07.184Z,14.90
2023-03-30T15:05:56.210Z,17.60
2023-03-30T15:08:47.449Z,12.45
2023-03-30T15:11:39.616Z,15.35
2023-03-30T15:14:35.463Z,13.35
2023-03-30T15:17:27.615Z,14.25
2023-03-30T15:20:16.361Z,17.17
2023-03-30T15:23:04.772Z,13.95
2023-03-30T15:25:59.536Z,16.90
2023-03-30T15:28:52.074Z,14.60
2023-03-30T15:31:40.622Z,12.50
2023-03-30T15:34:30.355Z,12.10
2023-03-30T15:37:25.072Z,15.15
2023-03-30T15:40:31.788Z,13.50
2023-03-30T15:43:25.578Z,15.25
2023-03-30T15:46:16.968Z,9.40
2023-03-30T15:49:10.982Z,12.33
2023-03-30T15:52:02.718Z,16.65
2023-03-30T15:54:55.464Z,15.80
2023-03-30T15:57:48.750Z,13.38
2023-03-30T16:00:37.441Z,14.77
2023-03-30T16:03:41.304Z,11.23
2023-03-30T16:06:29.333Z,12.40
2023-03-30T16:09:18.787Z,14.43
2023-03-30T16:12:07.189Z,13.20
2023-03-30T16:14:56.352Z,10.43
2023-03-30T16:17:44.621Z,13.13
2023-03-30T16:20:34.057Z,16.00
2023-03-30T16:23:22.348Z,10.68
2023-03-30T16:26:13.434Z,17.02
2023-03-30T16:29:01.503Z,13.05
2023-03-30T16:31:49.829Z,14.93
2023-03-30T16:34:37.927Z,16.38
2023-03-30T16:37:26.000Z,10.85
2023-03-30T16:40:19.847Z,16.98
2023-03-30T16:43:09.436Z,12.20
2023-03-30T16:45:57.792Z,12.90
2023-03-30T16:48:46.746Z,8.75
2023-03-30T16:51:34.700Z,14.63
2023-03-30T16:54:31.027Z,11.73
2023-03-30T16:57:20.360Z,11.93
2023-03-30T17:00:19.596Z,12.90
2023-03-30T17:03:07.837Z,12.68
2023-03-30T17:05:56.191Z,13.40
2023-03-30T17:08:44.509Z,10.38
2023-03-30T17:11:32.453Z,11.27
2023-03-30T17:14:23.151Z,9.90
2023-03-30T17:17:12.557Z,11.68
2023-03-30T17:20:13.438Z,9.85
2023-03-30T17:23:01.631Z,12.05
2023-03-30T17:25:50.301Z,16.58
2023-03-30T17:28:38.564Z,10.77
2023-03-30T17:31:28.860Z,12.70
2023-03-30T17:34:18.229Z,13.48
2023-03-30T17:37:06.226Z,18.85
2023-03-30T17:39:56.987Z,12.70
2023-03-30T17:42:53.840Z,14.37
2023-03-30T17:45:43.469Z,10.90
2023-03-30T17:48:31.621Z,17.20
2023-03-30T17:51:21.121Z,13.02
2023-03-30T17:54:09.195Z,16.85
2023-03-30T18:01:12.350Z,10.90
2023-03-30T18:04:00.791Z,10.80
2023-03-30T18:06:50.979Z,12.48
2023-03-30T18:09:39.119Z,12.05
2023-03-30T18:12:27.110Z,11.47
2023-03-30T18:15:16.263Z,9.27
2023-03-30T18:18:05.292Z,14.95
2023-03-30T18:20:55.284Z,8.73
2023-03-30T18:23:48.110Z,18.95
2023-03-30T18:26:36.402Z,12.27
2023-03-30T18:29:24.571Z,13.40
2023-03-30T18:32:12.949Z,13.70
2023-03-30T18:35:00.965Z,12.02
2023-03-30T18:37:51.066Z,11.55
2023-03-30T18:40:44.571Z,10.50
2023-03-30T18:43:33.366Z,11.50
2023-03-30T18:46:21.442Z,13.50
2023-03-30T18:49:13.600Z,13.38
2023-03-30T18:52:01.877Z,14.60
2023-03-30T18:54:50.064Z,15.50
2023-03-30T18:57:39.755Z,12.80
2023-03-30T19:00:30.509Z,18.20
2023-03-30T19:03:19.610Z,10.75
2023-03-30T19:06:13.785Z,14.98
2023-03-30T19:09:01.995Z,15.33
2023-03-30T19:11:50.039Z,16.00
2023-03-30T19:14:39.408Z,14.18
2023-03-30T19:17:27.459Z,13.90
2023-03-30T19:20:16.531Z,17.85
2023-03-30T19:23:04.677Z,12.63
2023-03-30T19:25:53.381Z,14.15
2023-03-30T19:28:41.477Z,14.23
2023-03-30T19:31:31.030Z,14.85
2023-03-30T19:34:19.150Z,15.25
2023-03-30T19:37:07.577Z,14.20
2023-03-30T19:39:55.895Z,14.18
2023-03-30T19:42:44.249Z,19.08
2023-03-30T19:45:32.244Z,10.68
2023-03-30T19:48:21.840Z,13.27
2023-03-30T19:51:09.866Z,16.77
2023-03-30T19:53:58.389Z,14.50
2023-03-30T19:56:46.561Z,12.68
2023-03-30T19:59:34.572Z,16.20
2023-03-30T20:02:22.566Z,13.38
2023-03-30T20:05:13.318Z,17.97
2023-03-30T20:08:10.495Z,18.52
2023-03-30T20:11:07.655Z,16.10
2023-03-30T20:13:55.718Z,12.77
2023-03-30T20:16:43.871Z,20.55
2023-03-30T20:19:32.404Z,14.77
2023-03-30T20:22:21.784Z,13.80
2023-03-30T20:25:12.747Z,13.75
2023-03-30T20:28:00.750Z,19.02
2023-03-30T20:30:48.730Z,16.60
2023-03-30T20:33:36.753Z,18.37
2023-03-30T20:36:25.833Z,12.57
2023-03-30T20:39:15.287Z,14.52
2023-03-30T20:42:08.248Z,15.93
2023-03-30T20:44:57.839Z,19.85
2023-03-30T20:47:50.068Z,16.63
2023-03-30T20:50:38.651Z,18.90
2023-03-30T20:53:26.753Z,19.17
2023-03-30T20:56:16.505Z,17.95
2023-03-30T20:59:05.112Z,15.65
2023-03-30T21:01:53.113Z,15.30
2023-03-30T21:04:41.285Z,16.13
2023-03-30T21:07:29.868Z,18.20
2023-03-30T21:10:18.130Z,19.63
2023-03-30T21:13:07.602Z,13.38
2023-03-30T21:15:58.940Z,17.53
2023-03-30T21:18:46.917Z,18.92
2023-03-30T21:21:37.114Z,21.65
2023-03-30T21:24:25.286Z,15.55
2023-03-30T21:27:14.616Z,15.05
2023-03-30T21:30:04.242Z,13.93
2023-03-30T21:32:52.279Z,12.68
2023-03-30T21:35:40.501Z,12.75
2023-03-30T21:38:30.360Z,13.85
2023-03-30T21:41:20.936Z,12.82
2023-03-30T21:44:09.042Z,10.50
2023-03-30T21:46:58.469Z,11.98
2023-03-30T21:49:46.591Z,16.45
2023-03-30T21:52:35.426Z,16.02
2023-03-30T21:55:23.476Z,18.65
2023-03-30T21:58:11.478Z,12.90
2023-03-30T22:01:09.051Z,13.90
2023-03-30T22:04:03.232Z,14.38
2023-03-30T22:06:52.699Z,13.45
2023-03-30T22:09:41.195Z,14.77
2023-03-30T22:12:31.394Z,14.37
2023-03-30T22:15:21.691Z,12.23
2023-03-30T22:18:10.841Z,16.88
2023-03-30T22:21:01.405Z,12.88
2023-03-30T22:23:49.459Z,17.00
2023-03-30T22:26:37.595Z,12.63
2023-03-30T22:29:26.048Z,11.55
2023-03-30T22:32:14.062Z,13.77
2023-03-30T22:35:02.608Z,13.40
2023-03-30T22:37:52.232Z,15.20
2023-03-30T22:40:42.009Z,13.17
2023-03-30T22:43:30.409Z,16.02
2023-03-30T22:46:18.750Z,11.43
2023-03-30T22:49:07.780Z,10.65
2023-03-30T22:51:55.868Z,14.55
2023-03-30T22:54:45.212Z,11.80
2023-03-30T22:57:33.265Z,14.30
2023-03-30T23:00:22.141Z,12.95
2023-03-30T23:03:10.745Z,12.43
2023-03-30T23:06:01.184Z,14.35
2023-03-30T23:08:49.593Z,18.80
2023-03-30T23:11:39.886Z,15.07
2023-03-30T23:14:29.478Z,14.07
2023-03-30T23:17:17.444Z,16.23
2023-03-30T23:20:09.850Z,15.02
2023-03-30T23:22:57.867Z,15.20
2023-03-30T23:25:50.414Z,10.32
2023-03-30T23:28:42.920Z,11.73
2023-03-30T23:31:31.636Z,13.10
2023-03-30T23:34:19.910Z,9.93
2023-03-30T23:37:08.025Z,12.13
2023-03-30T23:39:55.968Z,10.98
2023-03-30T23:42:43.967Z,15.60
2023-03-30T23:45:33.437Z,12.13
2023-03-30T23:48:21.430Z,14.45
2023-03-30T23:51:10.085Z,11.67
2023-03-30T23:54:06.351Z,13.15
2023-03-30T23:56:57.283Z,10.95
2023-03-30T23:59:45.635Z,7.88
